sensor_id;sensor_type;location;lat;lon;timestamp;P1;durP1;ratioP1;P2;durP2;ratioP2
53253;SDS011;39148;53.332;6.922;2023-11-21T00:00:15;6.20;;;1.52;;
53253;SDS011;39148;53.332;6.922;2023-11-21T00:02:41;5.75;;;1.52;;
53253;SDS011;39148;53.332;6.922;2023-11-21T00:05:09;4.32;;;1.13;;
53253;SDS011;39148;53.332;6.922;2023-11-21T00:07:36;6.45;;;1.52;;
53253;SDS011;39148;53.332;6.922;2023-11-21T00:10:02;6.70;;;1.67;;
53253;SDS011;39148;53.332;6.922;2023-11-21T00:12:30;6.18;;;1.60;;
53253;SDS011;39148;53.332;6.922;2023-11-21T00:14:56;5.28;;;1.30;;
53253;SDS011;39148;53.332;6.922;2023-11-21T00:17:22;5.97;;;1.48;;
53253;SDS011;39148;53.332;6.922;2023-11-21T00:19:49;5.43;;;1.27;;
53253;SDS011;39148;53.332;6.922;2023-11-21T00:22:17;6.25;;;1.70;;
53253;SDS011;39148;53.332;6.922;2023-11-21T00:24:43;8.27;;;1.70;;
53253;SDS011;39148;53.332;6.922;2023-11-21T00:27:09;4.65;;;1.50;;
53253;SDS011;39148;53.332;6.922;2023-11-21T00:29:34;7.65;;;1.92;;
53253;SDS011;39148;53.332;6.922;2023-11-21T00:32:00;5.93;;;1.30;;
53253;SDS011;39148;53.332;6.922;2023-11-21T00:34:26;7.18;;;1.50;;
53253;SDS011;39148;53.332;6.922;2023-11-21T00:36:52;5.10;;;1.38;;
53253;SDS011;39148;53.332;6.922;2023-11-21T00:39:19;4.63;;;1.30;;
53253;SDS011;39148;53.332;6.922;2023-11-21T00:41:44;3.95;;;1.27;;
53253;SDS011;39148;53.332;6.922;2023-11-21T00:44:10;6.68;;;1.33;;
53253;SDS011;39148;53.332;6.922;2023-11-21T00:46:36;5.82;;;1.35;;
53253;SDS011;39148;53.332;6.922;2023-11-21T00:49:02;4.45;;;1.40;;
53253;SDS011;39148;53.332;6.922;2023-11-21T00:51:29;6.65;;;1.27;;
53253;SDS011;39148;53.332;6.922;2023-11-21T00:53:55;4.82;;;1.40;;
53253;SDS011;39148;53.332;6.922;2023-11-21T00:56:21;6.25;;;1.40;;
53253;SDS011;39148;53.332;6.922;2023-11-21T00:58:47;4.70;;;1.20;;
53253;SDS011;39148;53.332;6.922;2023-11-21T01:01:17;5.10;;;1.45;;
53253;SDS011;39148;53.332;6.922;2023-11-21T01:03:44;5.13;;;1.48;;
53253;SDS011;39148;53.332;6.922;2023-11-21T01:06:11;5.45;;;1.67;;
53253;SDS011;39148;53.332;6.922;2023-11-21T01:08:37;6.93;;;1.58;;
53253;SDS011;39148;53.332;6.922;2023-11-21T01:11:03;4.93;;;1.10;;
53253;SDS011;39148;53.332;6.922;2023-11-21T01:13:30;4.18;;;1.50;;
53253;SDS011;39148;53.332;6.922;2023-11-21T01:15:56;4.65;;;1.52;;
53253;SDS011;39148;53.332;6.922;2023-11-21T01:18:22;8.07;;;1.98;;
53253;SDS011;39148;53.332;6.922;2023-11-21T01:20:50;8.20;;;1.48;;
53253;SDS011;39148;53.332;6.922;2023-11-21T01:23:18;6.85;;;1.50;;
53253;SDS011;39148;53.332;6.922;2023-11-21T01:25:45;5.47;;;1.55;;
53253;SDS011;39148;53.332;6.922;2023-11-21T01:28:10;3.72;;;1.20;;
53253;SDS011;39148;53.332;6.922;2023-11-21T01:30:37;4.18;;;1.20;;
53253;SDS011;39148;53.332;6.922;2023-11-21T01:33:03;3.97;;;1.30;;
53253;SDS011;39148;53.332;6.922;2023-11-21T01:35:29;5.70;;;1.35;;
53253;SDS011;39148;53.332;6.922;2023-11-21T01:37:55;5.53;;;1.48;;
53253;SDS011;39148;53.332;6.922;2023-11-21T01:40:21;4.80;;;1.27;;
53253;SDS011;39148;53.332;6.922;2023-11-21T01:42:47;4.78;;;1.25;;
53253;SDS011;39148;53.332;6.922;2023-11-21T01:45:13;4.50;;;1.45;;
53253;SDS011;39148;53.332;6.922;2023-11-21T01:47:39;5.72;;;1.38;;
53253;SDS011;39148;53.332;6.922;2023-11-21T01:50:07;5.65;;;1.60;;
53253;SDS011;39148;53.332;6.922;2023-11-21T01:52:37;4.65;;;1.38;;
53253;SDS011;39148;53.332;6.922;2023-11-21T01:55:05;5.82;;;1.60;;
53253;SDS011;39148;53.332;6.922;2023-11-21T01:57:33;5.03;;;1.60;;
53253;SDS011;39148;53.332;6.922;2023-11-21T01:59:59;5.78;;;1.75;;
53253;SDS011;39148;53.332;6.922;2023-11-21T02:02:40;8.52;;;2.08;;
53253;SDS011;39148;53.332;6.922;2023-11-21T02:05:06;5.95;;;1.50;;
53253;SDS011;39148;53.332;6.922;2023-11-21T02:07:34;6.00;;;1.48;;
53253;SDS011;39148;53.332;6.922;2023-11-21T02:10:00;6.78;;;1.60;;
53253;SDS011;39148;53.332;6.922;2023-11-21T02:12:26;5.90;;;1.40;;
53253;SDS011;39148;53.332;6.922;2023-11-21T02:14:52;4.47;;;1.58;;
53253;SDS011;39148;53.332;6.922;2023-11-21T02:17:18;7.07;;;1.52;;
53253;SDS011;39148;53.332;6.922;2023-11-21T02:19:45;5.57;;;1.58;;
53253;SDS011;39148;53.332;6.922;2023-11-21T02:22:12;3.78;;;1.52;;
53253;SDS011;39148;53.332;6.922;2023-11-21T02:24:40;4.40;;;1.40;;
53253;SDS011;39148;53.332;6.922;2023-11-21T02:27:07;6.00;;;1.50;;
53253;SDS011;39148;53.332;6.922;2023-11-21T02:29:33;6.70;;;1.85;;
53253;SDS011;39148;53.332;6.922;2023-11-21T02:31:59;5.55;;;1.40;;
53253;SDS011;39148;53.332;6.922;2023-11-21T02:34:25;4.15;;;1.40;;
53253;SDS011;39148;53.332;6.922;2023-11-21T02:36:51;6.70;;;1.67;;
53253;SDS011;39148;53.332;6.922;2023-11-21T02:39:17;7.05;;;1.50;;
53253;SDS011;39148;53.332;6.922;2023-11-21T02:41:47;4.75;;;1.52;;
53253;SDS011;39148;53.332;6.922;2023-11-21T02:44:13;6.18;;;1.58;;
53253;SDS011;39148;53.332;6.922;2023-11-21T02:46:38;5.22;;;1.70;;
53253;SDS011;39148;53.332;6.922;2023-11-21T02:49:05;4.78;;;1.50;;
53253;SDS011;39148;53.332;6.922;2023-11-21T02:51:31;3.58;;;1.60;;
53253;SDS011;39148;53.332;6.922;2023-11-21T02:53:58;5.15;;;1.88;;
53253;SDS011;39148;53.332;6.922;2023-11-21T02:56:25;4.38;;;1.67;;
53253;SDS011;39148;53.332;6.922;2023-11-21T02:58:52;4.78;;;1.60;;
53253;SDS011;39148;53.332;6.922;2023-11-21T03:01:20;5.38;;;1.90;;
53253;SDS011;39148;53.332;6.922;2023-11-21T03:03:45;8.82;;;2.08;;
53253;SDS011;39148;53.332;6.922;2023-11-21T03:06:12;5.95;;;2.05;;
53253;SDS011;39148;53.332;6.922;2023-11-21T03:08:38;4.68;;;1.50;;
53253;SDS011;39148;53.332;6.922;2023-11-21T03:11:04;5.10;;;1.67;;
53253;SDS011;39148;53.332;6.922;2023-11-21T03:13:30;5.50;;;1.50;;
53253;SDS011;39148;53.332;6.922;2023-11-21T03:15:56;7.70;;;1.80;;
53253;SDS011;39148;53.332;6.922;2023-11-21T03:18:21;4.00;;;1.40;;
53253;SDS011;39148;53.332;6.922;2023-11-21T03:20:48;5.57;;;1.70;;
53253;SDS011;39148;53.332;6.922;2023-11-21T03:23:13;5.78;;;1.90;;
53253;SDS011;39148;53.332;6.922;2023-11-21T03:25:40;5.13;;;1.83;;
53253;SDS011;39148;53.332;6.922;2023-11-21T03:28:06;4.93;;;1.70;;
53253;SDS011;39148;53.332;6.922;2023-11-21T03:30:33;4.90;;;1.58;;
53253;SDS011;39148;53.332;6.922;2023-11-21T03:32:59;4.80;;;1.40;;
53253;SDS011;39148;53.332;6.922;2023-11-21T03:35:25;4.30;;;1.42;;
53253;SDS011;39148;53.332;6.922;2023-11-21T03:37:51;5.07;;;1.67;;
53253;SDS011;39148;53.332;6.922;2023-11-21T03:40:17;4.72;;;1.80;;
53253;SDS011;39148;53.332;6.922;2023-11-21T03:42:43;5.75;;;2.00;;
53253;SDS011;39148;53.332;6.922;2023-11-21T03:45:09;5.75;;;1.52;;
53253;SDS011;39148;53.332;6.922;2023-11-21T03:47:37;5.70;;;1.60;;
53253;SDS011;39148;53.332;6.922;2023-11-21T03:50:03;5.80;;;1.77;;
53253;SDS011;39148;53.332;6.922;2023-11-21T03:52:29;4.50;;;1.63;;
53253;SDS011;39148;53.332;6.922;2023-11-21T03:54:55;5.88;;;1.55;;
53253;SDS011;39148;53.332;6.922;2023-11-21T03:57:21;4.88;;;1.55;;
53253;SDS011;39148;53.332;6.922;2023-11-21T03:59:47;4.95;;;1.55;;
53253;SDS011;39148;53.332;6.922;2023-11-21T04:02:13;5.70;;;1.67;;
53253;SDS011;39148;53.332;6.922;2023-11-21T04:04:39;5.03;;;1.52;;
53253;SDS011;39148;53.332;6.922;2023-11-21T04:07:04;7.25;;;2.15;;
53253;SDS011;39148;53.332;6.922;2023-11-21T04:09:31;5.85;;;2.22;;
53253;SDS011;39148;53.332;6.922;2023-11-21T04:11:57;7.55;;;2.20;;
53253;SDS011;39148;53.332;6.922;2023-11-21T04:14:22;5.25;;;1.80;;
53253;SDS011;39148;53.332;6.922;2023-11-21T04:16:48;4.50;;;1.92;;
53253;SDS011;39148;53.332;6.922;2023-11-21T04:19:14;6.68;;;2.20;;
53253;SDS011;39148;53.332;6.922;2023-11-21T04:21:42;6.78;;;1.85;;
53253;SDS011;39148;53.332;6.922;2023-11-21T04:24:08;7.35;;;2.20;;
53253;SDS011;39148;53.332;6.922;2023-11-21T04:26:34;5.82;;;2.03;;
53253;SDS011;39148;53.332;6.922;2023-11-21T04:29:00;5.32;;;2.10;;
53253;SDS011;39148;53.332;6.922;2023-11-21T04:31:26;7.45;;;2.38;;
53253;SDS011;39148;53.332;6.922;2023-11-21T04:33:51;5.35;;;2.13;;
53253;SDS011;39148;53.332;6.922;2023-11-21T04:36:17;5.65;;;2.00;;
53253;SDS011;39148;53.332;6.922;2023-11-21T04:38:43;6.88;;;2.50;;
53253;SDS011;39148;53.332;6.922;2023-11-21T04:41:09;8.55;;;2.38;;
53253;SDS011;39148;53.332;6.922;2023-11-21T04:43:35;4.60;;;2.08;;
53253;SDS011;39148;53.332;6.922;2023-11-21T04:46:01;8.27;;;2.20;;
53253;SDS011;39148;53.332;6.922;2023-11-21T04:48:27;6.97;;;2.20;;
53253;SDS011;39148;53.332;6.922;2023-11-21T04:50:53;6.32;;;2.45;;
53253;SDS011;39148;53.332;6.922;2023-11-21T04:53:19;6.75;;;2.40;;
53253;SDS011;39148;53.332;6.922;2023-11-21T04:55:45;6.40;;;2.13;;
53253;SDS011;39148;53.332;6.922;2023-11-21T04:58:11;6.75;;;2.40;;
53253;SDS011;39148;53.332;6.922;2023-11-21T05:00:38;6.43;;;2.40;;
53253;SDS011;39148;53.332;6.922;2023-11-21T05:03:03;6.30;;;2.60;;
53253;SDS011;39148;53.332;6.922;2023-11-21T05:05:32;7.65;;;2.72;;
53253;SDS011;39148;53.332;6.922;2023-11-21T05:07:59;5.88;;;2.38;;
53253;SDS011;39148;53.332;6.922;2023-11-21T05:10:26;11.02;;;3.10;;
53253;SDS011;39148;53.332;6.922;2023-11-21T05:12:51;8.43;;;3.30;;
53253;SDS011;39148;53.332;6.922;2023-11-21T05:15:17;7.85;;;2.38;;
53253;SDS011;39148;53.332;6.922;2023-11-21T05:17:44;9.30;;;2.80;;
53253;SDS011;39148;53.332;6.922;2023-11-21T05:20:14;10.38;;;3.72;;
53253;SDS011;39148;53.332;6.922;2023-11-21T05:22:43;8.85;;;3.10;;
53253;SDS011;39148;53.332;6.922;2023-11-21T05:25:09;9.00;;;3.28;;
53253;SDS011;39148;53.332;6.922;2023-11-21T05:27:36;8.07;;;3.25;;
53253;SDS011;39148;53.332;6.922;2023-11-21T05:30:02;9.63;;;4.05;;
53253;SDS011;39148;53.332;6.922;2023-11-21T05:32:37;7.88;;;3.65;;
53253;SDS011;39148;53.332;6.922;2023-11-21T05:35:03;9.18;;;4.20;;
53253;SDS011;39148;53.332;6.922;2023-11-21T05:37:34;10.65;;;4.18;;
53253;SDS011;39148;53.332;6.922;2023-11-21T05:40:00;10.30;;;4.40;;
53253;SDS011;39148;53.332;6.922;2023-11-21T05:42:31;8.68;;;3.95;;
53253;SDS011;39148;53.332;6.922;2023-11-21T05:44:57;9.32;;;4.35;;
53253;SDS011;39148;53.332;6.922;2023-11-21T05:47:42;9.05;;;4.30;;
53253;SDS011;39148;53.332;6.922;2023-11-21T05:50:11;9.63;;;4.47;;
53253;SDS011;39148;53.332;6.922;2023-11-21T05:52:39;9.50;;;4.65;;
53253;SDS011;39148;53.332;6.922;2023-11-21T05:55:09;11.27;;;5.40;;
53253;SDS011;39148;53.332;6.922;2023-11-21T05:57:35;13.95;;;5.75;;
53253;SDS011;39148;53.332;6.922;2023-11-21T06:00:06;9.80;;;5.32;;
53253;SDS011;39148;53.332;6.922;2023-11-21T06:02:39;12.02;;;5.47;;
53253;SDS011;39148;53.332;6.922;2023-11-21T06:05:08;12.30;;;5.55;;
53253;SDS011;39148;53.332;6.922;2023-11-21T06:07:34;10.77;;;5.60;;
53253;SDS011;39148;53.332;6.922;2023-11-21T06:10:04;10.73;;;5.47;;
53253;SDS011;39148;53.332;6.922;2023-11-21T06:12:36;12.50;;;6.30;;
53253;SDS011;39148;53.332;6.922;2023-11-21T06:15:03;12.45;;;6.05;;
53253;SDS011;39148;53.332;6.922;2023-11-21T06:17:31;11.95;;;6.05;;
53253;SDS011;39148;53.332;6.922;2023-11-21T06:19:57;9.38;;;5.80;;
53253;SDS011;39148;53.332;6.922;2023-11-21T06:22:23;11.60;;;6.30;;
53253;SDS011;39148;53.332;6.922;2023-11-21T06:24:49;10.05;;;5.88;;
53253;SDS011;39148;53.332;6.922;2023-11-21T06:27:15;10.85;;;5.80;;
53253;SDS011;39148;53.332;6.922;2023-11-21T06:29:41;13.63;;;6.60;;
53253;SDS011;39148;53.332;6.922;2023-11-21T06:32:07;11.55;;;6.43;;
53253;SDS011;39148;53.332;6.922;2023-11-21T06:34:33;12.25;;;6.70;;
53253;SDS011;39148;53.332;6.922;2023-11-21T06:36:59;12.40;;;6.97;;
53253;SDS011;39148;53.332;6.922;2023-11-21T06:39:25;10.98;;;6.75;;
53253;SDS011;39148;53.332;6.922;2023-11-21T06:41:52;12.85;;;6.65;;
53253;SDS011;39148;53.332;6.922;2023-11-21T06:44:18;11.20;;;7.10;;
53253;SDS011;39148;53.332;6.922;2023-11-21T06:46:45;13.70;;;7.40;;
53253;SDS011;39148;53.332;6.922;2023-11-21T06:49:11;10.77;;;6.80;;
53253;SDS011;39148;53.332;6.922;2023-11-21T06:51:37;11.35;;;7.65;;
53253;SDS011;39148;53.332;6.922;2023-11-21T06:54:03;11.43;;;6.90;;
53253;SDS011;39148;53.332;6.922;2023-11-21T06:56:29;11.15;;;7.38;;
53253;SDS011;39148;53.332;6.922;2023-11-21T06:58:55;11.15;;;6.90;;
53253;SDS011;39148;53.332;6.922;2023-11-21T07:01:22;11.57;;;7.10;;
53253;SDS011;39148;53.332;6.922;2023-11-21T07:03:47;11.57;;;7.32;;
53253;SDS011;39148;53.332;6.922;2023-11-21T07:06:14;10.32;;;6.75;;
53253;SDS011;39148;53.332;6.922;2023-11-21T07:08:39;13.27;;;7.75;;
53253;SDS011;39148;53.332;6.922;2023-11-21T07:11:05;11.45;;;7.32;;
53253;SDS011;39148;53.332;6.922;2023-11-21T07:13:32;14.02;;;7.45;;
53253;SDS011;39148;53.332;6.922;2023-11-21T07:15:58;12.52;;;7.45;;
53253;SDS011;39148;53.332;6.922;2023-11-21T07:18:24;11.68;;;7.50;;
53253;SDS011;39148;53.332;6.922;2023-11-21T07:20:50;13.23;;;8.73;;
53253;SDS011;39148;53.332;6.922;2023-11-21T07:23:16;11.85;;;7.78;;
53253;SDS011;39148;53.332;6.922;2023-11-21T07:25:43;12.45;;;7.90;;
53253;SDS011;39148;53.332;6.922;2023-11-21T07:28:09;11.80;;;7.65;;
53253;SDS011;39148;53.332;6.922;2023-11-21T07:30:35;12.00;;;7.50;;
53253;SDS011;39148;53.332;6.922;2023-11-21T07:33:01;12.90;;;7.72;;
53253;SDS011;39148;53.332;6.922;2023-11-21T07:35:26;15.70;;;8.35;;
53253;SDS011;39148;53.332;6.922;2023-11-21T07:37:52;12.25;;;7.80;;
53253;SDS011;39148;53.332;6.922;2023-11-21T07:40:18;12.77;;;8.50;;
53253;SDS011;39148;53.332;6.922;2023-11-21T07:42:44;11.77;;;7.80;;
53253;SDS011;39148;53.332;6.922;2023-11-21T07:45:10;12.88;;;8.50;;
53253;SDS011;39148;53.332;6.922;2023-11-21T07:47:36;13.93;;;8.55;;
53253;SDS011;39148;53.332;6.922;2023-11-21T07:50:04;13.63;;;9.27;;
53253;SDS011;39148;53.332;6.922;2023-11-21T07:52:32;12.70;;;8.18;;
53253;SDS011;39148;53.332;6.922;2023-11-21T07:54:58;13.25;;;8.68;;
53253;SDS011;39148;53.332;6.922;2023-11-21T07:57:24;14.75;;;8.55;;
53253;SDS011;39148;53.332;6.922;2023-11-21T07:59:51;12.23;;;8.60;;
53253;SDS011;39148;53.332;6.922;2023-11-21T08:02:18;13.65;;;8.63;;
53253;SDS011;39148;53.332;6.922;2023-11-21T08:04:45;13.35;;;9.35;;
53253;SDS011;39148;53.332;6.922;2023-11-21T08:07:14;12.38;;;8.75;;
53253;SDS011;39148;53.332;6.922;2023-11-21T08:09:40;13.07;;;8.65;;
53253;SDS011;39148;53.332;6.922;2023-11-21T08:12:07;14.75;;;9.68;;
53253;SDS011;39148;53.332;6.922;2023-11-21T08:14:33;15.57;;;9.40;;
53253;SDS011;39148;53.332;6.922;2023-11-21T08:16:58;14.02;;;9.20;;
53253;SDS011;39148;53.332;6.922;2023-11-21T08:19:24;13.70;;;9.30;;
53253;SDS011;39148;53.332;6.922;2023-11-21T08:21:51;12.30;;;8.85;;
53253;SDS011;39148;53.332;6.922;2023-11-21T08:24:19;12.30;;;8.75;;
53253;SDS011;39148;53.332;6.922;2023-11-21T08:26:45;13.77;;;8.73;;
53253;SDS011;39148;53.332;6.922;2023-11-21T08:29:11;12.40;;;8.70;;
53253;SDS011;39148;53.332;6.922;2023-11-21T08:31:36;12.25;;;8.65;;
53253;SDS011;39148;53.332;6.922;2023-11-21T08:34:03;13.13;;;8.88;;
53253;SDS011;39148;53.332;6.922;2023-11-21T08:36:29;13.40;;;8.68;;
53253;SDS011;39148;53.332;6.922;2023-11-21T08:38:56;11.25;;;8.30;;
53253;SDS011;39148;53.332;6.922;2023-11-21T08:41:22;13.05;;;8.93;;
53253;SDS011;39148;53.332;6.922;2023-11-21T08:43:51;12.20;;;8.80;;
53253;SDS011;39148;53.332;6.922;2023-11-21T08:46:18;10.93;;;8.52;;
53253;SDS011;39148;53.332;6.922;2023-11-21T08:48:45;11.80;;;8.55;;
53253;SDS011;39148;53.332;6.922;2023-11-21T08:51:11;12.25;;;8.30;;
53253;SDS011;39148;53.332;6.922;2023-11-21T08:53:37;11.07;;;8.38;;
53253;SDS011;39148;53.332;6.922;2023-11-21T08:56:03;12.57;;;9.15;;
53253;SDS011;39148;53.332;6.922;2023-11-21T08:58:30;11.73;;;8.52;;
53253;SDS011;39148;53.332;6.922;2023-11-21T09:00:57;12.20;;;8.75;;
53253;SDS011;39148;53.332;6.922;2023-11-21T09:03:23;12.35;;;8.88;;
53253;SDS011;39148;53.332;6.922;2023-11-21T09:05:49;11.48;;;8.38;;
53253;SDS011;39148;53.332;6.922;2023-11-21T09:08:15;13.00;;;8.98;;
53253;SDS011;39148;53.332;6.922;2023-11-21T09:10:41;11.23;;;7.63;;
53253;SDS011;39148;53.332;6.922;2023-11-21T09:13:08;12.35;;;8.63;;
53253;SDS011;39148;53.332;6.922;2023-11-21T09:15:35;11.68;;;8.18;;
53253;SDS011;39148;53.332;6.922;2023-11-21T09:18:00;11.38;;;7.90;;
53253;SDS011;39148;53.332;6.922;2023-11-21T09:20:27;10.60;;;7.63;;
53253;SDS011;39148;53.332;6.922;2023-11-21T09:22:53;12.10;;;8.30;;
53253;SDS011;39148;53.332;6.922;2023-11-21T09:25:20;11.18;;;8.02;;
53253;SDS011;39148;53.332;6.922;2023-11-21T09:27:46;12.30;;;8.40;;
53253;SDS011;39148;53.332;6.922;2023-11-21T09:30:12;12.10;;;7.45;;
53253;SDS011;39148;53.332;6.922;2023-11-21T09:32:39;10.93;;;7.63;;
53253;SDS011;39148;53.332;6.922;2023-11-21T09:35:06;11.05;;;7.95;;
53253;SDS011;39148;53.332;6.922;2023-11-21T09:37:35;11.82;;;8.02;;
53253;SDS011;39148;53.332;6.922;2023-11-21T09:40:01;11.23;;;7.43;;
53253;SDS011;39148;53.332;6.922;2023-11-21T09:42:38;11.18;;;7.35;;
53253;SDS011;39148;53.332;6.922;2023-11-21T09:47:53;9.90;;;7.10;;
53253;SDS011;39148;53.332;6.922;2023-11-21T09:50:20;11.48;;;7.78;;
53253;SDS011;39148;53.332;6.922;2023-11-21T09:55:35;9.88;;;7.07;;
53253;SDS011;39148;53.332;6.922;2023-11-21T09:58:04;10.88;;;7.95;;
53253;SDS011;39148;53.332;6.922;2023-11-21T10:00:32;10.27;;;7.13;;
53253;SDS011;39148;53.332;6.922;2023-11-21T10:02:59;10.50;;;7.95;;
53253;SDS011;39148;53.332;6.922;2023-11-21T10:05:25;10.93;;;7.20;;
53253;SDS011;39148;53.332;6.922;2023-11-21T10:07:51;10.98;;;7.28;;
53253;SDS011;39148;53.332;6.922;2023-11-21T10:10:19;10.50;;;7.55;;
53253;SDS011;39148;53.332;6.922;2023-11-21T10:12:48;10.55;;;7.50;;
53253;SDS011;39148;53.332;6.922;2023-11-21T10:15:21;10.90;;;7.32;;
53253;SDS011;39148;53.332;6.922;2023-11-21T10:17:48;10.48;;;7.55;;
53253;SDS011;39148;53.332;6.922;2023-11-21T10:20:15;10.40;;;7.30;;
53253;SDS011;39148;53.332;6.922;2023-11-21T10:22:42;10.63;;;7.00;;
53253;SDS011;39148;53.332;6.922;2023-11-21T10:25:11;9.68;;;6.50;;
53253;SDS011;39148;53.332;6.922;2023-11-21T10:27:41;9.30;;;6.30;;
53253;SDS011;39148;53.332;6.922;2023-11-21T10:30:08;10.93;;;6.75;;
53253;SDS011;39148;53.332;6.922;2023-11-21T10:32:41;11.77;;;7.88;;
53253;SDS011;39148;53.332;6.922;2023-11-21T10:35:07;12.30;;;8.32;;
53253;SDS011;39148;53.332;6.922;2023-11-21T10:37:44;13.18;;;6.90;;
53253;SDS011;39148;53.332;6.922;2023-11-21T10:40:10;10.00;;;7.07;;
53253;SDS011;39148;53.332;6.922;2023-11-21T10:42:40;10.50;;;6.47;;
53253;SDS011;39148;53.332;6.922;2023-11-21T10:45:09;11.07;;;7.35;;
53253;SDS011;39148;53.332;6.922;2023-11-21T10:47:39;10.65;;;7.47;;
53253;SDS011;39148;53.332;6.922;2023-11-21T10:50:09;10.15;;;7.47;;
53253;SDS011;39148;53.332;6.922;2023-11-21T10:52:45;9.90;;;6.57;;
53253;SDS011;39148;53.332;6.922;2023-11-21T10:57:51;10.95;;;7.00;;
53253;SDS011;39148;53.332;6.922;2023-11-21T11:00:19;10.75;;;7.38;;
53253;SDS011;39148;53.332;6.922;2023-11-21T11:02:50;12.13;;;7.47;;
53253;SDS011;39148;53.332;6.922;2023-11-21T11:07:45;9.95;;;6.63;;
53253;SDS011;39148;53.332;6.922;2023-11-21T11:10:17;10.38;;;7.38;;
53253;SDS011;39148;53.332;6.922;2023-11-21T11:12:46;9.73;;;6.38;;
53253;SDS011;39148;53.332;6.922;2023-11-21T11:15:12;10.10;;;6.78;;
53253;SDS011;39148;53.332;6.922;2023-11-21T11:17:39;9.93;;;6.63;;
53253;SDS011;39148;53.332;6.922;2023-11-21T11:20:07;8.85;;;6.38;;
53253;SDS011;39148;53.332;6.922;2023-11-21T11:22:37;9.10;;;6.38;;
53253;SDS011;39148;53.332;6.922;2023-11-21T11:28:08;8.48;;;6.35;;
53253;SDS011;39148;53.332;6.922;2023-11-21T11:34:04;8.68;;;6.20;;
53253;SDS011;39148;53.332;6.922;2023-11-21T11:36:17;10.30;;;6.82;;
53253;SDS011;39148;53.332;6.922;2023-11-21T11:38:49;9.38;;;6.82;;
53253;SDS011;39148;53.332;6.922;2023-11-21T11:41:23;9.55;;;6.50;;
53253;SDS011;39148;53.332;6.922;2023-11-21T11:43:54;8.55;;;6.22;;
53253;SDS011;39148;53.332;6.922;2023-11-21T11:46:20;8.52;;;6.50;;
53253;SDS011;39148;53.332;6.922;2023-11-21T11:48:47;10.65;;;6.85;;
53253;SDS011;39148;53.332;6.922;2023-11-21T11:51:14;11.07;;;7.10;;
53253;SDS011;39148;53.332;6.922;2023-11-21T11:53:43;10.52;;;6.63;;
53253;SDS011;39148;53.332;6.922;2023-11-21T11:56:27;9.23;;;6.80;;
53253;SDS011;39148;53.332;6.922;2023-11-21T11:58:56;9.38;;;6.80;;
53253;SDS011;39148;53.332;6.922;2023-11-21T12:01:24;10.35;;;7.20;;
53253;SDS011;39148;53.332;6.922;2023-11-21T12:07:00;9.18;;;6.45;;
53253;SDS011;39148;53.332;6.922;2023-11-21T12:09:28;10.55;;;6.50;;
53253;SDS011;39148;53.332;6.922;2023-11-21T12:11:55;8.30;;;5.97;;
53253;SDS011;39148;53.332;6.922;2023-11-21T12:14:24;9.32;;;6.47;;
53253;SDS011;39148;53.332;6.922;2023-11-21T12:16:50;11.27;;;6.28;;
53253;SDS011;39148;53.332;6.922;2023-11-21T12:19:17;10.85;;;6.57;;
53253;SDS011;39148;53.332;6.922;2023-11-21T12:21:43;8.48;;;6.05;;
53253;SDS011;39148;53.332;6.922;2023-11-21T12:24:13;9.68;;;6.22;;
53253;SDS011;39148;53.332;6.922;2023-11-21T12:26:41;9.57;;;6.93;;
53253;SDS011;39148;53.332;6.922;2023-11-21T12:29:09;10.43;;;6.40;;
53253;SDS011;39148;53.332;6.922;2023-11-21T12:31:35;9.45;;;6.45;;
53253;SDS011;39148;53.332;6.922;2023-11-21T12:34:01;9.93;;;6.82;;
53253;SDS011;39148;53.332;6.922;2023-11-21T12:36:27;10.02;;;6.80;;
53253;SDS011;39148;53.332;6.922;2023-11-21T12:38:55;8.65;;;6.20;;
53253;SDS011;39148;53.332;6.922;2023-11-21T12:41:21;9.40;;;6.97;;
53253;SDS011;39148;53.332;6.922;2023-11-21T12:43:47;10.50;;;6.63;;
53253;SDS011;39148;53.332;6.922;2023-11-21T12:46:13;7.97;;;5.97;;
53253;SDS011;39148;53.332;6.922;2023-11-21T12:48:43;8.70;;;5.93;;
53253;SDS011;39148;53.332;6.922;2023-11-21T12:51:11;9.38;;;6.38;;
53253;SDS011;39148;53.332;6.922;2023-11-21T12:53:37;8.23;;;6.07;;
53253;SDS011;39148;53.332;6.922;2023-11-21T12:56:07;8.15;;;5.95;;
53253;SDS011;39148;53.332;6.922;2023-11-21T12:58:36;9.05;;;5.60;;
53253;SDS011;39148;53.332;6.922;2023-11-21T13:01:04;7.57;;;5.32;;
53253;SDS011;39148;53.332;6.922;2023-11-21T13:03:36;8.23;;;5.85;;
53253;SDS011;39148;53.332;6.922;2023-11-21T13:06:03;8.60;;;6.00;;
53253;SDS011;39148;53.332;6.922;2023-11-21T13:08:30;9.18;;;6.18;;
53253;SDS011;39148;53.332;6.922;2023-11-21T13:10:58;9.05;;;5.57;;
53253;SDS011;39148;53.332;6.922;2023-11-21T13:13:24;7.60;;;5.40;;
53253;SDS011;39148;53.332;6.922;2023-11-21T13:15:58;9.38;;;5.95;;
53253;SDS011;39148;53.332;6.922;2023-11-21T13:18:30;7.88;;;5.65;;
53253;SDS011;39148;53.332;6.922;2023-11-21T13:21:01;8.65;;;5.97;;
53253;SDS011;39148;53.332;6.922;2023-11-21T13:23:47;8.30;;;5.90;;
53253;SDS011;39148;53.332;6.922;2023-11-21T13:26:16;8.32;;;5.53;;
53253;SDS011;39148;53.332;6.922;2023-11-21T13:28:42;12.57;;;6.30;;
53253;SDS011;39148;53.332;6.922;2023-11-21T13:31:12;8.13;;;5.53;;
53253;SDS011;39148;53.332;6.922;2023-11-21T13:33:57;7.45;;;5.15;;
53253;SDS011;39148;53.332;6.922;2023-11-21T13:36:30;8.57;;;5.60;;
53253;SDS011;39148;53.332;6.922;2023-11-21T13:38:58;7.90;;;5.47;;
53253;SDS011;39148;53.332;6.922;2023-11-21T13:41:29;7.55;;;5.28;;
53253;SDS011;39148;53.332;6.922;2023-11-21T13:43:56;8.73;;;5.07;;
53253;SDS011;39148;53.332;6.922;2023-11-21T13:46:42;9.20;;;5.72;;
53253;SDS011;39148;53.332;6.922;2023-11-21T13:49:09;9.30;;;5.30;;
53253;SDS011;39148;53.332;6.922;2023-11-21T13:51:35;6.88;;;4.97;;
53253;SDS011;39148;53.332;6.922;2023-11-21T13:54:09;8.07;;;5.22;;
53253;SDS011;39148;53.332;6.922;2023-11-21T13:56:35;7.82;;;5.03;;
53253;SDS011;39148;53.332;6.922;2023-11-21T13:59:02;9.52;;;5.07;;
53253;SDS011;39148;53.332;6.922;2023-11-21T14:01:48;7.88;;;5.28;;
53253;SDS011;39148;53.332;6.922;2023-11-21T14:04:21;7.35;;;4.60;;
53253;SDS011;39148;53.332;6.922;2023-11-21T14:07:18;7.68;;;5.00;;
53253;SDS011;39148;53.332;6.922;2023-11-21T14:10:03;7.13;;;4.75;;
53253;SDS011;39148;53.332;6.922;2023-11-21T14:12:32;6.72;;;4.47;;
53253;SDS011;39148;53.332;6.922;2023-11-21T14:15:01;7.53;;;4.78;;
53253;SDS011;39148;53.332;6.922;2023-11-21T14:17:30;6.93;;;4.63;;
53253;SDS011;39148;53.332;6.922;2023-11-21T14:19:56;6.93;;;4.35;;
53253;SDS011;39148;53.332;6.922;2023-11-21T14:22:21;8.10;;;4.03;;
53253;SDS011;39148;53.332;6.922;2023-11-21T14:24:47;8.85;;;4.55;;
53253;SDS011;39148;53.332;6.922;2023-11-21T14:27:15;6.82;;;4.13;;
53253;SDS011;39148;53.332;6.922;2023-11-21T14:29:41;6.88;;;4.63;;
53253;SDS011;39148;53.332;6.922;2023-11-21T14:32:09;7.30;;;4.78;;
53253;SDS011;39148;53.332;6.922;2023-11-21T14:34:35;7.93;;;4.32;;
53253;SDS011;39148;53.332;6.922;2023-11-21T14:37:02;7.60;;;4.70;;
53253;SDS011;39148;53.332;6.922;2023-11-21T14:39:30;7.07;;;3.80;;
53253;SDS011;39148;53.332;6.922;2023-11-21T14:42:00;7.55;;;3.72;;
53253;SDS011;39148;53.332;6.922;2023-11-21T14:44:27;6.30;;;4.03;;
53253;SDS011;39148;53.332;6.922;2023-11-21T14:46:57;6.78;;;4.05;;
53253;SDS011;39148;53.332;6.922;2023-11-21T14:49:24;6.72;;;3.92;;
53253;SDS011;39148;53.332;6.922;2023-11-21T14:51:56;6.55;;;4.00;;
53253;SDS011;39148;53.332;6.922;2023-11-21T14:54:28;7.53;;;4.25;;
53253;SDS011;39148;53.332;6.922;2023-11-21T14:57:08;7.45;;;3.95;;
53253;SDS011;39148;53.332;6.922;2023-11-21T14:59:43;6.90;;;3.97;;
53253;SDS011;39148;53.332;6.922;2023-11-21T15:02:12;6.40;;;4.00;;
53253;SDS011;39148;53.332;6.922;2023-11-21T15:04:45;6.55;;;3.67;;